Airfield :
LOGIN :

Register | Disclaimer

   EN    FR    IT 

 










Legend :    VFR   Marginal VFR   IFR   Intensive IFR   Very Intensive IFR
Visi :
Ceiling :
>= 8 km
>= 3000ft
5 to 8 km
1000 to 3000 ft
1500m to 5 km
500 to 1000 ft
800 to 1500m
200 to 500 ft
< 800m
< 200 ft
Symbols :   Thunderstorms  Fog  Heavy snow  Heavy precipitations  Wind > 20 kt
SIGMETs :     Misc.  Thunderstorms  Icing  Turbulence  Mountain Waves  Volcanic Ashes






- Airport Elevation : 1300 ft
- IATA code : LIG


LFBL - Limoges

CURRENT METAR :
  • 050430Z AUTO 04004KT CAVOK 13/07 Q1017 NOSIG

EXPIRED METARs :
  • 050400Z AUTO 04004KT CAVOK 13/07 Q1017 NOSIG
  • 050330Z AUTO 04004KT CAVOK 13/07 Q1017 NOSIG
  • 050300Z AUTO 04004KT CAVOK 13/07 Q1017 NOSIG
  • 050230Z AUTO 04004KT CAVOK 14/07 Q1017 NOSIG
  • 050200Z AUTO 04004KT CAVOK 14/07 Q1017 NOSIG

TAF TAF LFBL
Valid from the 05 at 00:00 until the 06 at 00:00 UTC


042300Z 0500/0524 VRB03KT CAVOK
ATIS : +33 5 55 48 40 37



MET'MAP, your aeronautical weather chart ! - Copyright ORBIFLY December 2007 - Disclaimer

ORBIFLY MET'MAP TEAM :

Programming & Development : Alexandra Zaïnal
Concept & original design : Baudouin d'Aumeries
Assistance for programming : Marc-Olivier Méhu
Technical & hardware support : Manuel Goepfert

Contact : metmap@orbifly.com




SOURCES & CREDITS :

   NOAA